sensor_id;sensor_type;location;lat;lon;timestamp;P1;durP1;ratioP1;P2;durP2;ratioP2
1759;SDS011;877;46.266;20.062;2023-05-10T00:00:45;7.57;;;5.80;;
1759;SDS011;877;46.266;20.062;2023-05-10T00:03:12;8.17;;;7.20;;
1759;SDS011;877;46.266;20.062;2023-05-10T00:05:38;8.00;;;6.70;;
1759;SDS011;877;46.266;20.062;2023-05-10T00:08:04;8.20;;;6.30;;
1759;SDS011;877;46.266;20.062;2023-05-10T00:10:30;9.50;;;6.67;;
1759;SDS011;877;46.266;20.062;2023-05-10T00:12:56;8.90;;;7.10;;
1759;SDS011;877;46.266;20.062;2023-05-10T00:15:24;9.50;;;7.87;;
1759;SDS011;877;46.266;20.062;2023-05-10T00:17:50;9.73;;;6.90;;
1759;SDS011;877;46.266;20.062;2023-05-10T00:20:17;7.47;;;6.67;;
1759;SDS011;877;46.266;20.062;2023-05-10T00:22:43;8.90;;;6.17;;
1759;SDS011;877;46.266;20.062;2023-05-10T00:25:09;8.97;;;7.10;;
1759;SDS011;877;46.266;20.062;2023-05-10T00:27:36;8.47;;;6.90;;
1759;SDS011;877;46.266;20.062;2023-05-10T00:30:02;7.57;;;6.60;;
1759;SDS011;877;46.266;20.062;2023-05-10T00:32:29;8.20;;;6.27;;
1759;SDS011;877;46.266;20.062;2023-05-10T00:34:59;10.13;;;7.83;;
1759;SDS011;877;46.266;20.062;2023-05-10T00:37:25;7.60;;;6.80;;
1759;SDS011;877;46.266;20.062;2023-05-10T00:39:52;8.00;;;6.30;;
1759;SDS011;877;46.266;20.062;2023-05-10T00:42:18;8.53;;;7.13;;
1759;SDS011;877;46.266;20.062;2023-05-10T00:44:44;11.10;;;7.97;;
1759;SDS011;877;46.266;20.062;2023-05-10T00:47:11;8.20;;;6.93;;
1759;SDS011;877;46.266;20.062;2023-05-10T00:49:39;7.87;;;7.07;;
1759;SDS011;877;46.266;20.062;2023-05-10T00:52:06;8.23;;;6.80;;
1759;SDS011;877;46.266;20.062;2023-05-10T00:54:33;10.00;;;7.53;;
1759;SDS011;877;46.266;20.062;2023-05-10T00:57:00;9.63;;;7.23;;
1759;SDS011;877;46.266;20.062;2023-05-10T00:59:26;7.67;;;6.70;;
1759;SDS011;877;46.266;20.062;2023-05-10T01:01:52;8.87;;;7.20;;
1759;SDS011;877;46.266;20.062;2023-05-10T01:04:19;8.50;;;7.53;;
1759;SDS011;877;46.266;20.062;2023-05-10T01:06:50;9.23;;;7.23;;
1759;SDS011;877;46.266;20.062;2023-05-10T01:09:19;8.97;;;7.87;;
1759;SDS011;877;46.266;20.062;2023-05-10T01:11:46;13.10;;;7.70;;
1759;SDS011;877;46.266;20.062;2023-05-10T01:14:12;10.00;;;7.77;;
1759;SDS011;877;46.266;20.062;2023-05-10T01:16:40;11.20;;;7.43;;
1759;SDS011;877;46.266;20.062;2023-05-10T01:19:12;16.13;;;8.17;;
1759;SDS011;877;46.266;20.062;2023-05-10T01:24:23;10.37;;;8.10;;
1759;SDS011;877;46.266;20.062;2023-05-10T01:35:18;9.13;;;8.00;;
1759;SDS011;877;46.266;20.062;2023-05-10T01:37:42;10.77;;;8.00;;
1759;SDS011;877;46.266;20.062;2023-05-10T01:40:19;10.23;;;7.90;;
1759;SDS011;877;46.266;20.062;2023-05-10T01:42:50;10.80;;;8.30;;
1759;SDS011;877;46.266;20.062;2023-05-10T01:45:27;9.47;;;8.17;;
1759;SDS011;877;46.266;20.062;2023-05-10T01:47:58;9.47;;;8.50;;
1759;SDS011;877;46.266;20.062;2023-05-10T01:50:29;11.30;;;8.57;;
1759;SDS011;877;46.266;20.062;2023-05-10T01:52:57;12.80;;;9.03;;
1759;SDS011;877;46.266;20.062;2023-05-10T01:55:25;13.10;;;9.73;;
1759;SDS011;877;46.266;20.062;2023-05-10T01:57:56;11.33;;;8.63;;
1759;SDS011;877;46.266;20.062;2023-05-10T02:00:24;10.07;;;8.97;;
1759;SDS011;877;46.266;20.062;2023-05-10T02:02:52;10.83;;;9.70;;
1759;SDS011;877;46.266;20.062;2023-05-10T02:05:18;11.40;;;8.30;;
1759;SDS011;877;46.266;20.062;2023-05-10T02:07:50;10.17;;;8.77;;
1759;SDS011;877;46.266;20.062;2023-05-10T02:10:18;11.47;;;9.57;;
1759;SDS011;877;46.266;20.062;2023-05-10T02:12:46;11.33;;;10.00;;
1759;SDS011;877;46.266;20.062;2023-05-10T02:15:15;13.40;;;9.83;;
1759;SDS011;877;46.266;20.062;2023-05-10T02:17:42;11.77;;;9.60;;
1759;SDS011;877;46.266;20.062;2023-05-10T02:20:09;10.80;;;9.70;;
1759;SDS011;877;46.266;20.062;2023-05-10T02:22:36;11.23;;;9.63;;
1759;SDS011;877;46.266;20.062;2023-05-10T02:25:03;11.57;;;9.20;;
1759;SDS011;877;46.266;20.062;2023-05-10T02:27:31;10.77;;;8.60;;
1759;SDS011;877;46.266;20.062;2023-05-10T02:29:57;12.07;;;9.10;;
1759;SDS011;877;46.266;20.062;2023-05-10T02:32:24;12.90;;;9.33;;
1759;SDS011;877;46.266;20.062;2023-05-10T02:34:52;14.53;;;9.93;;
1759;SDS011;877;46.266;20.062;2023-05-10T02:37:18;12.60;;;9.60;;
1759;SDS011;877;46.266;20.062;2023-05-10T02:39:49;12.10;;;9.73;;
1759;SDS011;877;46.266;20.062;2023-05-10T02:42:17;14.23;;;10.87;;
1759;SDS011;877;46.266;20.062;2023-05-10T02:44:48;12.70;;;11.00;;
1759;SDS011;877;46.266;20.062;2023-05-10T02:47:14;12.27;;;10.93;;
1759;SDS011;877;46.266;20.062;2023-05-10T02:49:41;13.27;;;10.73;;
1759;SDS011;877;46.266;20.062;2023-05-10T02:52:07;13.60;;;10.20;;
1759;SDS011;877;46.266;20.062;2023-05-10T02:54:41;15.67;;;10.90;;
1759;SDS011;877;46.266;20.062;2023-05-10T02:57:14;14.63;;;10.30;;
1759;SDS011;877;46.266;20.062;2023-05-10T02:59:41;11.20;;;9.83;;
1759;SDS011;877;46.266;20.062;2023-05-10T03:02:13;12.67;;;10.30;;
1759;SDS011;877;46.266;20.062;2023-05-10T03:04:40;11.37;;;9.57;;
1759;SDS011;877;46.266;20.062;2023-05-10T03:07:06;11.70;;;10.27;;
1759;SDS011;877;46.266;20.062;2023-05-10T03:09:34;24.60;;;10.50;;
1759;SDS011;877;46.266;20.062;2023-05-10T03:12:11;12.93;;;10.40;;
1759;SDS011;877;46.266;20.062;2023-05-10T03:15:00;12.33;;;9.40;;
1759;SDS011;877;46.266;20.062;2023-05-10T03:19:58;14.67;;;9.93;;
1759;SDS011;877;46.266;20.062;2023-05-10T03:22:45;17.50;;;9.40;;
1759;SDS011;877;46.266;20.062;2023-05-10T03:25:12;12.50;;;10.10;;
1759;SDS011;877;46.266;20.062;2023-05-10T03:27:41;11.33;;;9.80;;
1759;SDS011;877;46.266;20.062;2023-05-10T03:30:08;15.53;;;10.33;;
1759;SDS011;877;46.266;20.062;2023-05-10T03:32:36;12.40;;;10.07;;
1759;SDS011;877;46.266;20.062;2023-05-10T03:35:09;18.20;;;10.73;;
1759;SDS011;877;46.266;20.062;2023-05-10T03:37:35;15.97;;;10.87;;
1759;SDS011;877;46.266;20.062;2023-05-10T03:40:02;15.82;;;11.30;;
1759;SDS011;877;46.266;20.062;2023-05-10T03:42:28;12.77;;;10.50;;
1759;SDS011;877;46.266;20.062;2023-05-10T03:44:54;12.03;;;10.13;;
1759;SDS011;877;46.266;20.062;2023-05-10T03:47:21;15.32;;;10.20;;
1759;SDS011;877;46.266;20.062;2023-05-10T03:49:51;13.33;;;10.13;;
1759;SDS011;877;46.266;20.062;2023-05-10T03:52:17;13.00;;;11.17;;
1759;SDS011;877;46.266;20.062;2023-05-10T03:54:45;13.13;;;10.50;;
1759;SDS011;877;46.266;20.062;2023-05-10T03:57:13;13.43;;;10.60;;
1759;SDS011;877;46.266;20.062;2023-05-10T03:59:39;11.63;;;9.50;;
1759;SDS011;877;46.266;20.062;2023-05-10T04:02:05;13.80;;;10.73;;
1759;SDS011;877;46.266;20.062;2023-05-10T04:04:31;17.07;;;10.17;;
1759;SDS011;877;46.266;20.062;2023-05-10T04:07:04;14.00;;;9.47;;
1759;SDS011;877;46.266;20.062;2023-05-10T04:09:32;12.83;;;10.90;;
1759;SDS011;877;46.266;20.062;2023-05-10T04:11:59;11.77;;;10.30;;
1759;SDS011;877;46.266;20.062;2023-05-10T04:14:28;14.23;;;11.20;;
1759;SDS011;877;46.266;20.062;2023-05-10T04:21:58;12.00;;;10.60;;
1759;SDS011;877;46.266;20.062;2023-05-10T04:24:24;16.30;;;11.80;;
1759;SDS011;877;46.266;20.062;2023-05-10T04:26:51;14.70;;;12.00;;
1759;SDS011;877;46.266;20.062;2023-05-10T04:29:17;13.03;;;10.80;;
1759;SDS011;877;46.266;20.062;2023-05-10T04:31:43;12.80;;;10.57;;
1759;SDS011;877;46.266;20.062;2023-05-10T04:34:10;17.33;;;11.90;;
1759;SDS011;877;46.266;20.062;2023-05-10T04:36:36;17.10;;;12.40;;
1759;SDS011;877;46.266;20.062;2023-05-10T04:39:03;15.70;;;11.07;;
1759;SDS011;877;46.266;20.062;2023-05-10T04:41:29;15.03;;;11.07;;
1759;SDS011;877;46.266;20.062;2023-05-10T04:43:55;14.10;;;11.37;;
1759;SDS011;877;46.266;20.062;2023-05-10T04:46:22;13.90;;;10.77;;
1759;SDS011;877;46.266;20.062;2023-05-10T04:48:48;14.37;;;10.77;;
1759;SDS011;877;46.266;20.062;2023-05-10T04:51:14;16.57;;;11.60;;
1759;SDS011;877;46.266;20.062;2023-05-10T04:53:40;14.20;;;11.50;;
1759;SDS011;877;46.266;20.062;2023-05-10T04:56:06;15.03;;;12.50;;
1759;SDS011;877;46.266;20.062;2023-05-10T04:58:33;13.27;;;10.73;;
1759;SDS011;877;46.266;20.062;2023-05-10T05:01:06;16.43;;;11.67;;
1759;SDS011;877;46.266;20.062;2023-05-10T05:03:33;24.40;;;19.10;;
1759;SDS011;877;46.266;20.062;2023-05-10T05:05:59;15.43;;;11.30;;
1759;SDS011;877;46.266;20.062;2023-05-10T05:08:26;12.17;;;9.30;;
1759;SDS011;877;46.266;20.062;2023-05-10T05:10:54;12.97;;;9.93;;
1759;SDS011;877;46.266;20.062;2023-05-10T05:13:20;14.17;;;9.07;;
1759;SDS011;877;46.266;20.062;2023-05-10T05:15:46;12.80;;;10.50;;
1759;SDS011;877;46.266;20.062;2023-05-10T05:18:13;15.23;;;9.67;;
1759;SDS011;877;46.266;20.062;2023-05-10T05:20:39;12.13;;;9.83;;
1759;SDS011;877;46.266;20.062;2023-05-10T05:23:05;10.87;;;9.30;;
1759;SDS011;877;46.266;20.062;2023-05-10T05:25:32;10.73;;;8.50;;
1759;SDS011;877;46.266;20.062;2023-05-10T05:27:58;14.63;;;8.30;;
1759;SDS011;877;46.266;20.062;2023-05-10T05:30:24;13.37;;;8.37;;
1759;SDS011;877;46.266;20.062;2023-05-10T05:32:50;10.43;;;7.57;;
1759;SDS011;877;46.266;20.062;2023-05-10T05:35:18;11.57;;;8.27;;
1759;SDS011;877;46.266;20.062;2023-05-10T05:37:44;10.70;;;8.10;;
1759;SDS011;877;46.266;20.062;2023-05-10T05:40:12;11.47;;;8.07;;
1759;SDS011;877;46.266;20.062;2023-05-10T05:42:39;12.23;;;7.63;;
1759;SDS011;877;46.266;20.062;2023-05-10T05:45:06;12.23;;;7.30;;
1759;SDS011;877;46.266;20.062;2023-05-10T05:47:33;10.10;;;5.87;;
1759;SDS011;877;46.266;20.062;2023-05-10T05:50:00;11.90;;;6.40;;
1759;SDS011;877;46.266;20.062;2023-05-10T05:52:28;9.00;;;5.63;;
1759;SDS011;877;46.266;20.062;2023-05-10T05:54:56;7.90;;;5.70;;
1759;SDS011;877;46.266;20.062;2023-05-10T05:57:24;10.33;;;5.67;;
1759;SDS011;877;46.266;20.062;2023-05-10T05:59:51;10.73;;;5.50;;
1759;SDS011;877;46.266;20.062;2023-05-10T06:02:17;7.63;;;6.03;;
1759;SDS011;877;46.266;20.062;2023-05-10T06:04:44;16.03;;;5.43;;
1759;SDS011;877;46.266;20.062;2023-05-10T06:07:10;7.60;;;5.77;;
1759;SDS011;877;46.266;20.062;2023-05-10T06:09:36;8.63;;;6.47;;
1759;SDS011;877;46.266;20.062;2023-05-10T06:12:02;10.50;;;8.10;;
1759;SDS011;877;46.266;20.062;2023-05-10T06:14:28;7.40;;;5.97;;
1759;SDS011;877;46.266;20.062;2023-05-10T06:16:55;10.43;;;5.77;;
1759;SDS011;877;46.266;20.062;2023-05-10T06:19:22;7.77;;;5.70;;
1759;SDS011;877;46.266;20.062;2023-05-10T06:21:48;9.10;;;6.30;;
1759;SDS011;877;46.266;20.062;2023-05-10T06:24:16;7.47;;;5.47;;
1759;SDS011;877;46.266;20.062;2023-05-10T06:26:43;7.50;;;5.80;;
1759;SDS011;877;46.266;20.062;2023-05-10T06:29:10;7.47;;;6.20;;
1759;SDS011;877;46.266;20.062;2023-05-10T06:31:36;8.53;;;5.93;;
1759;SDS011;877;46.266;20.062;2023-05-10T06:34:03;7.33;;;6.13;;
1759;SDS011;877;46.266;20.062;2023-05-10T06:36:29;9.70;;;6.40;;
1759;SDS011;877;46.266;20.062;2023-05-10T06:38:56;8.30;;;5.40;;
1759;SDS011;877;46.266;20.062;2023-05-10T06:41:23;8.90;;;5.40;;
1759;SDS011;877;46.266;20.062;2023-05-10T06:43:50;7.60;;;5.33;;
1759;SDS011;877;46.266;20.062;2023-05-10T06:46:16;13.10;;;5.30;;
1759;SDS011;877;46.266;20.062;2023-05-10T06:48:43;8.80;;;5.53;;
1759;SDS011;877;46.266;20.062;2023-05-10T06:51:10;7.23;;;5.67;;
1759;SDS011;877;46.266;20.062;2023-05-10T06:53:37;6.63;;;5.23;;
1759;SDS011;877;46.266;20.062;2023-05-10T06:56:04;7.60;;;5.60;;
1759;SDS011;877;46.266;20.062;2023-05-10T06:58:30;7.40;;;6.20;;
1759;SDS011;877;46.266;20.062;2023-05-10T07:01:06;9.10;;;6.37;;
1759;SDS011;877;46.266;20.062;2023-05-10T07:03:33;6.87;;;5.77;;
1759;SDS011;877;46.266;20.062;2023-05-10T07:06:00;8.80;;;4.97;;
1759;SDS011;877;46.266;20.062;2023-05-10T07:08:34;7.80;;;5.53;;
1759;SDS011;877;46.266;20.062;2023-05-10T07:11:01;5.90;;;4.50;;
1759;SDS011;877;46.266;20.062;2023-05-10T07:13:28;7.27;;;5.23;;
1759;SDS011;877;46.266;20.062;2023-05-10T07:15:55;8.70;;;5.30;;
1759;SDS011;877;46.266;20.062;2023-05-10T07:18:21;7.83;;;5.37;;
1759;SDS011;877;46.266;20.062;2023-05-10T07:20:47;6.13;;;5.00;;
1759;SDS011;877;46.266;20.062;2023-05-10T07:23:13;11.33;;;5.20;;
1759;SDS011;877;46.266;20.062;2023-05-10T07:25:40;5.90;;;4.30;;
1759;SDS011;877;46.266;20.062;2023-05-10T07:28:06;7.27;;;5.00;;
1759;SDS011;877;46.266;20.062;2023-05-10T07:30:32;7.57;;;4.47;;
1759;SDS011;877;46.266;20.062;2023-05-10T07:32:58;6.10;;;4.90;;
1759;SDS011;877;46.266;20.062;2023-05-10T07:35:25;7.57;;;4.60;;
1759;SDS011;877;46.266;20.062;2023-05-10T07:37:51;6.40;;;4.23;;
1759;SDS011;877;46.266;20.062;2023-05-10T07:40:17;8.90;;;4.33;;
1759;SDS011;877;46.266;20.062;2023-05-10T07:42:44;5.40;;;4.90;;
1759;SDS011;877;46.266;20.062;2023-05-10T07:45:10;5.60;;;4.53;;
1759;SDS011;877;46.266;20.062;2023-05-10T07:47:36;8.37;;;4.50;;
1759;SDS011;877;46.266;20.062;2023-05-10T07:50:08;6.33;;;4.63;;
1759;SDS011;877;46.266;20.062;2023-05-10T07:52:36;4.73;;;4.20;;
1759;SDS011;877;46.266;20.062;2023-05-10T07:55:02;8.77;;;5.00;;
1759;SDS011;877;46.266;20.062;2023-05-10T07:57:30;4.90;;;4.40;;
1759;SDS011;877;46.266;20.062;2023-05-10T07:59:56;7.33;;;4.60;;
1759;SDS011;877;46.266;20.062;2023-05-10T08:02:25;9.70;;;4.20;;
1759;SDS011;877;46.266;20.062;2023-05-10T08:04:51;5.20;;;4.00;;
1759;SDS011;877;46.266;20.062;2023-05-10T08:07:17;9.03;;;5.00;;
1759;SDS011;877;46.266;20.062;2023-05-10T08:09:44;5.27;;;4.00;;
1759;SDS011;877;46.266;20.062;2023-05-10T08:12:11;5.73;;;4.10;;
1759;SDS011;877;46.266;20.062;2023-05-10T08:14:37;6.10;;;5.07;;
1759;SDS011;877;46.266;20.062;2023-05-10T08:17:03;5.63;;;3.70;;
1759;SDS011;877;46.266;20.062;2023-05-10T08:19:30;4.90;;;3.87;;
1759;SDS011;877;46.266;20.062;2023-05-10T08:21:56;4.70;;;3.80;;
1759;SDS011;877;46.266;20.062;2023-05-10T08:24:38;4.37;;;3.63;;
1759;SDS011;877;46.266;20.062;2023-05-10T08:27:07;4.40;;;3.33;;
1759;SDS011;877;46.266;20.062;2023-05-10T08:29:33;8.63;;;3.57;;
1759;SDS011;877;46.266;20.062;2023-05-10T08:31:59;6.83;;;4.30;;
1759;SDS011;877;46.266;20.062;2023-05-10T08:34:29;3.70;;;3.00;;
1759;SDS011;877;46.266;20.062;2023-05-10T08:36:56;4.03;;;2.80;;
1759;SDS011;877;46.266;20.062;2023-05-10T08:39:22;3.60;;;2.63;;
1759;SDS011;877;46.266;20.062;2023-05-10T08:41:48;4.37;;;2.90;;
1759;SDS011;877;46.266;20.062;2023-05-10T08:44:16;4.00;;;2.93;;
1759;SDS011;877;46.266;20.062;2023-05-10T08:46:44;4.37;;;3.10;;
1759;SDS011;877;46.266;20.062;2023-05-10T08:49:19;4.50;;;3.20;;
1759;SDS011;877;46.266;20.062;2023-05-10T08:51:49;4.17;;;3.00;;
1759;SDS011;877;46.266;20.062;2023-05-10T08:54:18;4.83;;;2.80;;
1759;SDS011;877;46.266;20.062;2023-05-10T08:56:45;3.83;;;2.90;;
1759;SDS011;877;46.266;20.062;2023-05-10T08:59:12;4.70;;;3.20;;
1759;SDS011;877;46.266;20.062;2023-05-10T09:01:39;4.20;;;3.20;;
1759;SDS011;877;46.266;20.062;2023-05-10T09:04:06;5.27;;;3.23;;
1759;SDS011;877;46.266;20.062;2023-05-10T09:06:33;5.93;;;3.03;;
1759;SDS011;877;46.266;20.062;2023-05-10T09:09:02;4.10;;;3.30;;
1759;SDS011;877;46.266;20.062;2023-05-10T09:11:28;4.37;;;2.97;;
1759;SDS011;877;46.266;20.062;2023-05-10T09:13:55;7.87;;;4.00;;
1759;SDS011;877;46.266;20.062;2023-05-10T09:16:21;6.40;;;3.87;;
1759;SDS011;877;46.266;20.062;2023-05-10T09:18:48;6.00;;;3.60;;
1759;SDS011;877;46.266;20.062;2023-05-10T09:21:14;6.90;;;4.00;;
1759;SDS011;877;46.266;20.062;2023-05-10T09:23:44;5.30;;;3.30;;
1759;SDS011;877;46.266;20.062;2023-05-10T09:26:11;6.30;;;3.33;;
1759;SDS011;877;46.266;20.062;2023-05-10T09:28:56;6.37;;;5.50;;
1759;SDS011;877;46.266;20.062;2023-05-10T09:34:08;4.40;;;3.50;;
1759;SDS011;877;46.266;20.062;2023-05-10T09:36:36;3.97;;;3.07;;
1759;SDS011;877;46.266;20.062;2023-05-10T09:39:03;5.47;;;3.27;;
1759;SDS011;877;46.266;20.062;2023-05-10T09:41:31;4.40;;;3.40;;
1759;SDS011;877;46.266;20.062;2023-05-10T09:44:00;5.57;;;2.53;;
1759;SDS011;877;46.266;20.062;2023-05-10T09:46:33;4.10;;;2.93;;
1759;SDS011;877;46.266;20.062;2023-05-10T09:49:15;6.70;;;2.97;;
1759;SDS011;877;46.266;20.062;2023-05-10T09:51:41;4.60;;;3.03;;
1759;SDS011;877;46.266;20.062;2023-05-10T09:54:16;9.50;;;4.00;;
1759;SDS011;877;46.266;20.062;2023-05-10T09:56:42;3.97;;;3.43;;
1759;SDS011;877;46.266;20.062;2023-05-10T09:59:12;4.80;;;3.60;;
1759;SDS011;877;46.266;20.062;2023-05-10T10:01:38;8.03;;;3.50;;
1759;SDS011;877;46.266;20.062;2023-05-10T10:04:06;3.83;;;2.80;;
1759;SDS011;877;46.266;20.062;2023-05-10T10:06:40;4.23;;;3.17;;
1759;SDS011;877;46.266;20.062;2023-05-10T10:09:07;4.60;;;2.73;;
1759;SDS011;877;46.266;20.062;2023-05-10T10:11:37;3.70;;;3.10;;
1759;SDS011;877;46.266;20.062;2023-05-10T10:14:06;4.90;;;3.10;;
1759;SDS011;877;46.266;20.062;2023-05-10T10:16:32;6.60;;;3.00;;
1759;SDS011;877;46.266;20.062;2023-05-10T10:18:58;5.83;;;2.87;;
1759;SDS011;877;46.266;20.062;2023-05-10T10:21:25;3.80;;;2.70;;
1759;SDS011;877;46.266;20.062;2023-05-10T10:23:54;5.37;;;3.30;;
1759;SDS011;877;46.266;20.062;2023-05-10T10:26:26;7.20;;;3.17;;
1759;SDS011;877;46.266;20.062;2023-05-10T10:29:10;5.90;;;3.40;;
1759;SDS011;877;46.266;20.062;2023-05-10T10:34:06;4.40;;;2.93;;
1759;SDS011;877;46.266;20.062;2023-05-10T10:36:44;3.40;;;2.70;;
1759;SDS011;877;46.266;20.062;2023-05-10T10:39:10;4.37;;;2.90;;
1759;SDS011;877;46.266;20.062;2023-05-10T10:41:38;5.73;;;3.60;;
1759;SDS011;877;46.266;20.062;2023-05-10T10:44:26;3.50;;;2.97;;
1759;SDS011;877;46.266;20.062;2023-05-10T10:49:42;3.73;;;2.77;;
1759;SDS011;877;46.266;20.062;2023-05-10T10:54:41;5.30;;;2.80;;
1759;SDS011;877;46.266;20.062;2023-05-10T10:57:11;5.10;;;2.70;;
1759;SDS011;877;46.266;20.062;2023-05-10T10:59:43;3.53;;;2.83;;
1759;SDS011;877;46.266;20.062;2023-05-10T11:02:17;7.00;;;3.10;;
1759;SDS011;877;46.266;20.062;2023-05-10T11:04:56;5.83;;;3.30;;
1759;SDS011;877;46.266;20.062;2023-05-10T11:07:22;4.50;;;2.80;;
1759;SDS011;877;46.266;20.062;2023-05-10T11:09:49;3.63;;;2.93;;
1759;SDS011;877;46.266;20.062;2023-05-10T11:12:16;5.20;;;3.10;;
1759;SDS011;877;46.266;20.062;2023-05-10T11:14:42;5.40;;;3.03;;
1759;SDS011;877;46.266;20.062;2023-05-10T11:17:25;3.90;;;3.37;;
1759;SDS011;877;46.266;20.062;2023-05-10T11:20:06;4.53;;;3.13;;
1759;SDS011;877;46.266;20.062;2023-05-10T11:22:48;4.10;;;2.73;;
1759;SDS011;877;46.266;20.062;2023-05-10T11:25:15;3.97;;;2.83;;
1759;SDS011;877;46.266;20.062;2023-05-10T11:27:42;6.73;;;3.07;;
1759;SDS011;877;46.266;20.062;2023-05-10T11:30:09;3.50;;;2.80;;
1759;SDS011;877;46.266;20.062;2023-05-10T11:32:38;4.70;;;3.20;;
1759;SDS011;877;46.266;20.062;2023-05-10T11:35:09;4.00;;;3.00;;
1759;SDS011;877;46.266;20.062;2023-05-10T11:37:35;6.40;;;3.00;;
1759;SDS011;877;46.266;20.062;2023-05-10T11:40:01;5.53;;;3.17;;
1759;SDS011;877;46.266;20.062;2023-05-10T11:42:28;3.47;;;2.67;;
1759;SDS011;877;46.266;20.062;2023-05-10T11:44:56;4.43;;;2.67;;
1759;SDS011;877;46.266;20.062;2023-05-10T11:47:22;6.70;;;3.23;;
1759;SDS011;877;46.266;20.062;2023-05-10T11:49:48;4.30;;;2.13;;
1759;SDS011;877;46.266;20.062;2023-05-10T11:52:15;5.70;;;2.50;;
1759;SDS011;877;46.266;20.062;2023-05-10T11:54:45;8.03;;;2.47;;
1759;SDS011;877;46.266;20.062;2023-05-10T11:57:12;3.17;;;2.17;;
1759;SDS011;877;46.266;20.062;2023-05-10T11:59:38;3.40;;;2.50;;
1759;SDS011;877;46.266;20.062;2023-05-10T12:02:05;3.53;;;1.87;;
1759;SDS011;877;46.266;20.062;2023-05-10T12:04:31;3.20;;;1.90;;
1759;SDS011;877;46.266;20.062;2023-05-10T12:06:58;3.83;;;2.27;;
1759;SDS011;877;46.266;20.062;2023-05-10T12:09:30;5.27;;;2.30;;
1759;SDS011;877;46.266;20.062;2023-05-10T12:11:57;3.87;;;2.20;;
1759;SDS011;877;46.266;20.062;2023-05-10T12:14:23;18.07;;;2.50;;
1759;SDS011;877;46.266;20.062;2023-05-10T12:16:49;3.47;;;2.30;;
1759;SDS011;877;46.266;20.062;2023-05-10T12:19:19;3.57;;;2.10;;
1759;SDS011;877;46.266;20.062;2023-05-10T12:21:46;4.27;;;2.27;;
1759;SDS011;877;46.266;20.062;2023-05-10T12:24:13;5.50;;;2.87;;
1759;SDS011;877;46.266;20.062;2023-05-10T12:26:43;3.40;;;2.40;;
1759;SDS011;877;46.266;20.062;2023-05-10T12:29:18;3.43;;;2.10;;
1759;SDS011;877;46.266;20.062;2023-05-10T12:31:55;3.67;;;2.50;;
1759;SDS011;877;46.266;20.062;2023-05-10T12:36:54;3.90;;;2.50;;
1759;SDS011;877;46.266;20.062;2023-05-10T12:39:20;3.50;;;2.20;;
1759;SDS011;877;46.266;20.062;2023-05-10T12:41:46;3.40;;;2.33;;
1759;SDS011;877;46.266;20.062;2023-05-10T12:44:13;3.53;;;2.67;;
1759;SDS011;877;46.266;20.062;2023-05-10T12:46:39;4.47;;;2.60;;
1759;SDS011;877;46.266;20.062;2023-05-10T12:49:05;3.60;;;2.73;;
1759;SDS011;877;46.266;20.062;2023-05-10T12:51:31;8.17;;;3.30;;
1759;SDS011;877;46.266;20.062;2023-05-10T12:53:57;4.13;;;3.03;;
1759;SDS011;877;46.266;20.062;2023-05-10T12:56:23;5.07;;;3.60;;
1759;SDS011;877;46.266;20.062;2023-05-10T12:58:50;8.53;;;2.90;;
1759;SDS011;877;46.266;20.062;2023-05-10T13:01:18;4.70;;;3.30;;
1759;SDS011;877;46.266;20.062;2023-05-10T13:03:44;4.30;;;2.43;;
1759;SDS011;877;46.266;20.062;2023-05-10T13:08:41;3.20;;;2.30;;
1759;SDS011;877;46.266;20.062;2023-05-10T13:11:07;3.20;;;2.17;;
1759;SDS011;877;46.266;20.062;2023-05-10T13:13:33;4.13;;;2.40;;
1759;SDS011;877;46.266;20.062;2023-05-10T13:15:59;6.47;;;2.60;;
1759;SDS011;877;46.266;20.062;2023-05-10T13:18:26;4.27;;;2.77;;
1759;SDS011;877;46.266;20.062;2023-05-10T13:20:53;3.70;;;2.37;;
1759;SDS011;877;46.266;20.062;2023-05-10T13:23:20;4.40;;;2.60;;
1759;SDS011;877;46.266;20.062;2023-05-10T13:25:46;3.47;;;2.20;;
1759;SDS011;877;46.266;20.062;2023-05-10T13:28:13;3.50;;;2.70;;
1759;SDS011;877;46.266;20.062;2023-05-10T13:30:39;5.07;;;2.50;;
1759;SDS011;877;46.266;20.062;2023-05-10T13:33:05;4.07;;;2.80;;
1759;SDS011;877;46.266;20.062;2023-05-10T13:35:31;4.63;;;2.90;;
1759;SDS011;877;46.266;20.062;2023-05-10T13:37:57;3.83;;;2.77;;
1759;SDS011;877;46.266;20.062;2023-05-10T13:40:24;3.50;;;2.53;;
1759;SDS011;877;46.266;20.062;2023-05-10T13:42:50;5.93;;;2.53;;
1759;SDS011;877;46.266;20.062;2023-05-10T13:45:17;3.73;;;2.27;;
1759;SDS011;877;46.266;20.062;2023-05-10T13:47:43;3.30;;;2.30;;
1759;SDS011;877;46.266;20.062;2023-05-10T13:50:09;4.90;;;3.00;;
1759;SDS011;877;46.266;20.062;2023-05-10T13:52:35;5.30;;;2.33;;
1759;SDS011;877;46.266;20.062;2023-05-10T13:55:02;4.40;;;2.40;;
1759;SDS011;877;46.266;20.062;2023-05-10T13:57:29;3.63;;;2.50;;
1759;SDS011;877;46.266;20.062;2023-05-10T13:59:56;4.23;;;2.77;;
1759;SDS011;877;46.266;20.062;2023-05-10T14:02:22;4.00;;;3.20;;
1759;SDS011;877;46.266;20.062;2023-05-10T14:04:49;3.50;;;2.43;;
1759;SDS011;877;46.266;20.062;2023-05-10T14:07:15;3.73;;;2.40;;
1759;SDS011;877;46.266;20.062;2023-05-10T14:09:41;3.63;;;2.13;;
1759;SDS011;877;46.266;20.062;2023-05-10T14:12:08;3.23;;;2.27;;
1759;SDS011;877;46.266;20.062;2023-05-10T14:14:34;6.13;;;2.67;;
1759;SDS011;877;46.266;20.062;2023-05-10T14:17:00;4.33;;;2.50;;
1759;SDS011;877;46.266;20.062;2023-05-10T14:19:26;3.50;;;2.80;;
1759;SDS011;877;46.266;20.062;2023-05-10T14:21:52;4.43;;;2.50;;
1759;SDS011;877;46.266;20.062;2023-05-10T14:24:19;4.33;;;2.40;;
1759;SDS011;877;46.266;20.062;2023-05-10T14:26:45;4.20;;;2.40;;
1759;SDS011;877;46.266;20.062;2023-05-10T14:29:11;3.80;;;2.13;;
1759;SDS011;877;46.266;20.062;2023-05-10T14:31:37;3.80;;;2.40;;
1759;SDS011;877;46.266;20.062;2023-05-10T14:34:05;4.83;;;2.10;;
1759;SDS011;877;46.266;20.062;2023-05-10T14:36:31;3.00;;;2.00;;
1759;SDS011;877;46.266;20.062;2023-05-10T14:38:58;4.23;;;2.57;;
1759;SDS011;877;46.266;20.062;2023-05-10T14:41:24;6.37;;;2.40;;
1759;SDS011;877;46.266;20.062;2023-05-10T14:43:50;5.50;;;2.40;;
1759;SDS011;877;46.266;20.062;2023-05-10T14:46:16;3.10;;;2.10;;
1759;SDS011;877;46.266;20.062;2023-05-10T14:48:42;2.90;;;2.00;;
1759;SDS011;877;46.266;20.062;2023-05-10T14:51:09;4.20;;;2.30;;
1759;SDS011;877;46.266;20.062;2023-05-10T14:53:36;3.67;;;2.50;;
1759;SDS011;877;46.266;20.062;2023-05-10T14:56:02;5.17;;;2.10;;
1759;SDS011;877;46.266;20.062;2023-05-10T14:58:28;2.97;;;2.03;;
1759;SDS011;877;46.266;20.062;2023-05-10T15:00:55;12.40;;;2.30;;
1759;SDS011;877;46.266;20.062;2023-05-10T15:03:24;3.63;;;2.10;;
1759;SDS011;877;46.266;20.062;2023-05-10T15:05:50;3.20;;;1.87;;
1759;SDS011;877;46.266;20.062;2023-05-10T15:08:46;3.00;;;1.67;;
1759;SDS011;877;46.266;20.062;2023-05-10T15:11:12;3.00;;;1.80;;
1759;SDS011;877;46.266;20.062;2023-05-10T15:13:38;3.40;;;1.77;;
1759;SDS011;877;46.266;20.062;2023-05-10T15:16:06;5.47;;;2.00;;
1759;SDS011;877;46.266;20.062;2023-05-10T15:18:32;3.70;;;1.80;;
1759;SDS011;877;46.266;20.062;2023-05-10T15:20:58;2.97;;;2.10;;
1759;SDS011;877;46.266;20.062;2023-05-10T15:23:24;4.03;;;2.03;;
1759;SDS011;877;46.266;20.062;2023-05-10T15:25:50;3.17;;;2.17;;
1759;SDS011;877;46.266;20.062;2023-05-10T15:28:20;4.10;;;2.53;;
1759;SDS011;877;46.266;20.062;2023-05-10T15:30:46;4.37;;;2.10;;
1759;SDS011;877;46.266;20.062;2023-05-10T15:33:13;3.47;;;2.57;;
1759;SDS011;877;46.266;20.062;2023-05-10T15:35:39;3.10;;;2.07;;
1759;SDS011;877;46.266;20.062;2023-05-10T15:38:06;6.00;;;1.90;;
1759;SDS011;877;46.266;20.062;2023-05-10T15:40:32;4.07;;;2.00;;
1759;SDS011;877;46.266;20.062;2023-05-10T15:42:58;5.80;;;1.97;;
1759;SDS011;877;46.266;20.062;2023-05-10T15:45:24;3.70;;;2.30;;
1759;SDS011;877;46.266;20.062;2023-05-10T15:47:51;5.30;;;2.13;;